sensor_id;sensor_type;location;lat;lon;timestamp;pressure;altitude;pressure_sealevel;temperature;humidity
51243;BME280;37812;47.556;18.718;2022-09-17T00:00:37;99009.91;;;12.95;100.00
51243;BME280;37812;47.556;18.718;2022-09-17T00:03:03;99020.34;;;12.98;100.00
51243;BME280;37812;47.556;18.718;2022-09-17T00:05:29;99013.41;;;12.97;100.00
51243;BME280;37812;47.556;18.718;2022-09-17T00:07:56;99015.94;;;12.94;100.00
51243;BME280;37812;47.556;18.718;2022-09-17T00:10:22;99015.06;;;12.92;100.00
51243;BME280;37812;47.556;18.718;2022-09-17T00:12:49;99016.75;;;12.90;100.00
51243;BME280;37812;47.556;18.718;2022-09-17T00:15:15;99011.50;;;12.87;100.00
51243;BME280;37812;47.556;18.718;2022-09-17T00:17:41;99001.19;;;12.90;100.00
51243;BME280;37812;47.556;18.718;2022-09-17T00:20:08;98996.13;;;12.99;100.00
51243;BME280;37812;47.556;18.718;2022-09-17T00:22:38;98977.91;;;12.96;100.00
51243;BME280;37812;47.556;18.718;2022-09-17T00:25:05;98976.09;;;12.91;100.00
51243;BME280;37812;47.556;18.718;2022-09-17T00:27:31;98971.87;;;12.97;100.00
51243;BME280;37812;47.556;18.718;2022-09-17T00:29:57;98966.56;;;12.91;100.00
51243;BME280;37812;47.556;18.718;2022-09-17T00:32:23;98970.03;;;12.90;100.00
51243;BME280;37812;47.556;18.718;2022-09-17T00:34:50;98973.47;;;12.89;100.00
51243;BME280;37812;47.556;18.718;2022-09-17T00:37:19;98961.28;;;12.85;100.00
51243;BME280;37812;47.556;18.718;2022-09-17T00:39:45;98961.12;;;12.73;100.00
51243;BME280;37812;47.556;18.718;2022-09-17T00:42:12;98945.56;;;12.76;100.00
51243;BME280;37812;47.556;18.718;2022-09-17T00:44:52;98959.50;;;12.81;100.00
51243;BME280;37812;47.556;18.718;2022-09-17T00:47:30;98952.62;;;12.86;100.00
51243;BME280;37812;47.556;18.718;2022-09-17T00:50:05;98949.19;;;12.87;100.00
51243;BME280;37812;47.556;18.718;2022-09-17T00:58:03;98946.53;;;12.81;100.00
51243;BME280;37812;47.556;18.718;2022-09-17T01:00:30;98947.41;;;12.83;100.00
51243;BME280;37812;47.556;18.718;2022-09-17T01:02:57;98940.41;;;12.79;100.00
51243;BME280;37812;47.556;18.718;2022-09-17T01:05:31;98938.62;;;12.73;100.00
51243;BME280;37812;47.556;18.718;2022-09-17T01:19:36;98946.09;;;12.55;100.00
51243;BME280;37812;47.556;18.718;2022-09-17T01:22:21;98936.59;;;12.56;100.00
51243;BME280;37812;47.556;18.718;2022-09-17T01:33:25;98979.03;;;12.58;100.00
51243;BME280;37812;47.556;18.718;2022-09-17T01:39:02;98973.75;;;12.53;100.00
51243;BME280;37812;47.556;18.718;2022-09-17T01:46:48;98974.66;;;12.57;100.00
51243;BME280;37812;47.556;18.718;2022-09-17T01:49:16;98974.78;;;12.63;100.00
51243;BME280;37812;47.556;18.718;2022-09-17T01:51:46;98974.63;;;12.53;100.00
51243;BME280;37812;47.556;18.718;2022-09-17T01:54:39;98978.06;;;12.52;100.00
51243;BME280;37812;47.556;18.718;2022-09-17T01:57:30;98984.78;;;12.41;100.00
51243;BME280;37812;47.556;18.718;2022-09-17T02:00:09;98984.09;;;12.50;100.00
51243;BME280;37812;47.556;18.718;2022-09-17T02:02:47;98973.66;;;12.47;100.00
51243;BME280;37812;47.556;18.718;2022-09-17T02:05:23;98973.75;;;12.53;100.00
51243;BME280;37812;47.556;18.718;2022-09-17T02:07:55;98968.47;;;12.48;100.00
51243;BME280;37812;47.556;18.718;2022-09-17T02:10:29;98967.38;;;12.34;100.00
51243;BME280;37812;47.556;18.718;2022-09-17T02:13:01;98958.50;;;12.20;100.00
51243;BME280;37812;47.556;18.718;2022-09-17T02:15:37;98970.66;;;12.24;100.00
51243;BME280;37812;47.556;18.718;2022-09-17T02:18:17;98964.59;;;12.23;100.00
51243;BME280;37812;47.556;18.718;2022-09-17T02:20:48;98961.88;;;12.16;100.00
51243;BME280;37812;47.556;18.718;2022-09-17T02:23:21;98953.25;;;12.17;100.00
51243;BME280;37812;47.556;18.718;2022-09-17T02:25:52;98960.00;;;12.09;100.00
51243;BME280;37812;47.556;18.718;2022-09-17T02:28:28;98954.19;;;12.20;100.00
51243;BME280;37812;47.556;18.718;2022-09-17T02:30:58;98950.59;;;12.14;100.00
51243;BME280;37812;47.556;18.718;2022-09-17T02:33:25;98949.66;;;12.10;100.00
51243;BME280;37812;47.556;18.718;2022-09-17T02:35:52;98939.34;;;12.12;100.00
51243;BME280;37812;47.556;18.718;2022-09-17T02:38:25;98930.31;;;11.91;100.00
51243;BME280;37812;47.556;18.718;2022-09-17T02:40:53;98944.34;;;12.03;100.00
51243;BME280;37812;47.556;18.718;2022-09-17T02:46:45;98932.09;;;11.95;100.00
51243;BME280;37812;47.556;18.718;2022-09-17T02:57:19;98923.50;;;11.96;100.00
51243;BME280;37812;47.556;18.718;2022-09-17T03:00:08;98919.88;;;11.88;100.00
51243;BME280;37812;47.556;18.718;2022-09-17T03:02:44;98916.50;;;11.92;100.00
51243;BME280;37812;47.556;18.718;2022-09-17T03:05:13;98910.50;;;11.95;100.00
51243;BME280;37812;47.556;18.718;2022-09-17T03:07:40;98901.06;;;11.99;100.00
51243;BME280;37812;47.556;18.718;2022-09-17T03:10:06;98893.34;;;12.03;100.00
51243;BME280;37812;47.556;18.718;2022-09-17T03:12:34;98894.13;;;11.98;100.00
51243;BME280;37812;47.556;18.718;2022-09-17T03:15:00;98890.63;;;11.95;100.00
51243;BME280;37812;47.556;18.718;2022-09-17T03:17:26;98895.81;;;11.95;100.00
51243;BME280;37812;47.556;18.718;2022-09-17T03:19:52;98890.59;;;11.92;100.00
51243;BME280;37812;47.556;18.718;2022-09-17T03:22:18;98878.41;;;11.88;100.00
51243;BME280;37812;47.556;18.718;2022-09-17T03:24:44;98861.06;;;11.84;100.00
51243;BME280;37812;47.556;18.718;2022-09-17T03:27:10;98856.00;;;11.90;100.00
51243;BME280;37812;47.556;18.718;2022-09-17T03:29:35;98854.25;;;11.89;100.00
51243;BME280;37812;47.556;18.718;2022-09-17T03:32:02;98837.72;;;11.83;100.00
51243;BME280;37812;47.556;18.718;2022-09-17T03:34:28;98835.13;;;11.84;100.00
51243;BME280;37812;47.556;18.718;2022-09-17T03:36:54;98832.53;;;11.83;100.00
51243;BME280;37812;47.556;18.718;2022-09-17T03:39:20;98836.69;;;11.76;100.00
51243;BME280;37812;47.556;18.718;2022-09-17T03:41:46;98829.69;;;11.72;100.00
51243;BME280;37812;47.556;18.718;2022-09-17T03:44:12;98841.87;;;11.75;100.00
51243;BME280;37812;47.556;18.718;2022-09-17T03:46:38;98842.72;;;11.75;100.00
51243;BME280;37812;47.556;18.718;2022-09-17T03:49:04;98840.06;;;11.72;100.00
51243;BME280;37812;47.556;18.718;2022-09-17T03:51:29;98845.22;;;11.69;100.00
51243;BME280;37812;47.556;18.718;2022-09-17T03:53:55;98843.47;;;11.68;100.00
51243;BME280;37812;47.556;18.718;2022-09-17T03:56:21;98853.94;;;11.74;100.00
51243;BME280;37812;47.556;18.718;2022-09-17T03:58:47;98850.37;;;11.69;100.00
51243;BME280;37812;47.556;18.718;2022-09-17T04:01:14;98848.75;;;11.74;100.00
51243;BME280;37812;47.556;18.718;2022-09-17T04:03:40;98850.50;;;11.75;100.00
51243;BME280;37812;47.556;18.718;2022-09-17T04:06:06;98848.75;;;11.74;100.00
51243;BME280;37812;47.556;18.718;2022-09-17T04:08:32;98853.03;;;11.72;100.00
51243;BME280;37812;47.556;18.718;2022-09-17T04:10:58;98847.03;;;11.73;100.00
51243;BME280;37812;47.556;18.718;2022-09-17T04:13:24;98861.66;;;11.73;100.00
51243;BME280;37812;47.556;18.718;2022-09-17T04:15:50;98850.50;;;11.75;100.00
51243;BME280;37812;47.556;18.718;2022-09-17T04:18:16;98857.56;;;11.82;100.00
51243;BME280;37812;47.556;18.718;2022-09-17T04:20:42;98841.91;;;11.79;100.00
51243;BME280;37812;47.556;18.718;2022-09-17T04:23:10;98841.91;;;11.79;100.00
51243;BME280;37812;47.556;18.718;2022-09-17T04:25:37;98837.56;;;11.77;100.00
51243;BME280;37812;47.556;18.718;2022-09-17T04:28:03;98842.78;;;11.78;100.00
51243;BME280;37812;47.556;18.718;2022-09-17T04:30:29;98861.03;;;11.81;100.00
51243;BME280;37812;47.556;18.718;2022-09-17T04:32:55;98860.03;;;11.78;100.00
51243;BME280;37812;47.556;18.718;2022-09-17T04:35:21;98863.53;;;11.80;100.00
51243;BME280;37812;47.556;18.718;2022-09-17T04:37:54;98854.00;;;11.77;100.00
51243;BME280;37812;47.556;18.718;2022-09-17T04:40:22;98850.53;;;11.78;100.00
51243;BME280;37812;47.556;18.718;2022-09-17T04:42:52;98840.19;;;11.78;100.00
51243;BME280;37812;47.556;18.718;2022-09-17T04:45:18;98830.69;;;11.79;100.00
51243;BME280;37812;47.556;18.718;2022-09-17T04:47:45;98835.00;;;11.78;100.00
51243;BME280;37812;47.556;18.718;2022-09-17T04:50:11;98829.06;;;11.82;100.00
51243;BME280;37812;47.556;18.718;2022-09-17T04:52:41;98824.72;;;11.81;100.00
51243;BME280;37812;47.556;18.718;2022-09-17T04:55:07;98821.00;;;11.67;100.00
51243;BME280;37812;47.556;18.718;2022-09-17T04:57:33;98820.16;;;11.68;100.00
51243;BME280;37812;47.556;18.718;2022-09-17T04:59:59;98821.88;;;11.69;100.00
51243;BME280;37812;47.556;18.718;2022-09-17T05:02:25;98819.28;;;11.69;100.00
51243;BME280;37812;47.556;18.718;2022-09-17T05:04:51;98827.09;;;11.72;100.00
51243;BME280;37812;47.556;18.718;2022-09-17T05:07:17;98836.59;;;11.70;100.00
51243;BME280;37812;47.556;18.718;2022-09-17T05:09:43;98842.59;;;11.67;100.00
51243;BME280;37812;47.556;18.718;2022-09-17T05:12:09;98853.03;;;11.72;100.00
51243;BME280;37812;47.556;18.718;2022-09-17T05:14:35;98865.97;;;11.72;100.00
51243;BME280;37812;47.556;18.718;2022-09-17T05:17:01;98864.19;;;11.68;100.00
51243;BME280;37812;47.556;18.718;2022-09-17T05:19:27;98863.91;;;11.53;100.00
51243;BME280;37812;47.556;18.718;2022-09-17T05:21:52;98862.22;;;11.55;100.00
51243;BME280;37812;47.556;18.718;2022-09-17T05:24:18;98864.03;;;11.59;100.00
51243;BME280;37812;47.556;18.718;2022-09-17T05:26:44;98860.59;;;11.60;100.00
51243;BME280;37812;47.556;18.718;2022-09-17T05:29:10;98876.12;;;11.60;100.00
51243;BME280;37812;47.556;18.718;2022-09-17T05:31:36;98876.19;;;11.63;100.00
51243;BME280;37812;47.556;18.718;2022-09-17T05:34:02;98885.66;;;11.61;100.00
51243;BME280;37812;47.556;18.718;2022-09-17T05:36:28;98883.09;;;11.64;100.00
51243;BME280;37812;47.556;18.718;2022-09-17T05:38:54;98884.81;;;11.62;100.00
51243;BME280;37812;47.556;18.718;2022-09-17T05:41:20;98890.28;;;11.77;100.00
51243;BME280;37812;47.556;18.718;2022-09-17T05:43:46;98893.00;;;11.82;100.00
51243;BME280;37812;47.556;18.718;2022-09-17T05:46:11;98894.84;;;11.89;100.00
51243;BME280;37812;47.556;18.718;2022-09-17T05:48:37;98907.69;;;11.81;100.00
51243;BME280;37812;47.556;18.718;2022-09-17T05:51:04;98914.66;;;11.85;100.00
51243;BME280;37812;47.556;18.718;2022-09-17T05:53:29;98916.53;;;11.95;100.00
51243;BME280;37812;47.556;18.718;2022-09-17T05:55:56;98907.03;;;11.94;100.00
51243;BME280;37812;47.556;18.718;2022-09-17T05:58:23;98905.34;;;11.96;100.00
51243;BME280;37812;47.556;18.718;2022-09-17T06:00:48;98899.41;;;12.04;100.00
51243;BME280;37812;47.556;18.718;2022-09-17T06:03:17;98902.97;;;12.09;100.00
51243;BME280;37812;47.556;18.718;2022-09-17T06:05:53;98897.16;;;12.22;100.00
51243;BME280;37812;47.556;18.718;2022-09-17T06:08:20;98910.00;;;12.16;100.00
51243;BME280;37812;47.556;18.718;2022-09-17T06:10:46;98917.19;;;12.32;100.00
51243;BME280;37812;47.556;18.718;2022-09-17T06:13:12;98913.47;;;12.16;100.00
51243;BME280;37812;47.556;18.718;2022-09-17T06:15:38;98910.22;;;12.28;100.00
51243;BME280;37812;47.556;18.718;2022-09-17T06:18:04;98900.12;;;12.46;100.00
51243;BME280;37812;47.556;18.718;2022-09-17T06:20:30;98891.59;;;12.53;99.82
51243;BME280;37812;47.556;18.718;2022-09-17T06:22:56;98889.25;;;12.16;100.00
51243;BME280;37812;47.556;18.718;2022-09-17T06:25:22;98917.06;;;12.26;100.00
51243;BME280;37812;47.556;18.718;2022-09-17T06:27:48;98908.56;;;12.33;100.00
51243;BME280;37812;47.556;18.718;2022-09-17T06:30:14;98924.13;;;12.33;100.00
51243;BME280;37812;47.556;18.718;2022-09-17T06:32:40;98918.03;;;12.31;100.00
51243;BME280;37812;47.556;18.718;2022-09-17T06:35:07;98918.19;;;12.42;100.00
51243;BME280;37812;47.556;18.718;2022-09-17T06:37:33;98920.16;;;12.55;100.00
51243;BME280;37812;47.556;18.718;2022-09-17T06:40:00;98919.41;;;12.64;100.00
51243;BME280;37812;47.556;18.718;2022-09-17T06:42:27;98925.31;;;12.53;100.00
51243;BME280;37812;47.556;18.718;2022-09-17T06:44:55;98927.81;;;12.47;100.00
51243;BME280;37812;47.556;18.718;2022-09-17T06:47:23;98938.06;;;12.38;100.00
51243;BME280;37812;47.556;18.718;2022-09-17T06:49:49;98939.00;;;12.43;100.00
51243;BME280;37812;47.556;18.718;2022-09-17T06:52:15;98940.87;;;12.52;99.81
51243;BME280;37812;47.556;18.718;2022-09-17T06:54:41;98931.22;;;12.43;100.00
51243;BME280;37812;47.556;18.718;2022-09-17T06:57:07;98927.91;;;12.53;99.49
51243;BME280;37812;47.556;18.718;2022-09-17T06:59:33;98919.53;;;12.70;100.00
51243;BME280;37812;47.556;18.718;2022-09-17T07:01:59;98916.13;;;12.74;99.73
51243;BME280;37812;47.556;18.718;2022-09-17T07:04:25;98921.38;;;12.78;100.00
51243;BME280;37812;47.556;18.718;2022-09-17T07:06:51;98916.16;;;12.77;97.75
51243;BME280;37812;47.556;18.718;2022-09-17T07:09:16;98921.56;;;12.92;96.66
51243;BME280;37812;47.556;18.718;2022-09-17T07:11:42;98907.94;;;13.08;97.37
51243;BME280;37812;47.556;18.718;2022-09-17T07:14:08;98909.91;;;13.22;93.67
51243;BME280;37812;47.556;18.718;2022-09-17T07:16:34;98907.28;;;13.20;93.55
51243;BME280;37812;47.556;18.718;2022-09-17T07:19:02;98903.72;;;13.15;93.29
51243;BME280;37812;47.556;18.718;2022-09-17T07:21:28;98902.87;;;13.18;91.27
51243;BME280;37812;47.556;18.718;2022-09-17T07:23:54;98896.25;;;13.41;91.65
51243;BME280;37812;47.556;18.718;2022-09-17T07:26:20;98894.56;;;13.43;91.22
51243;BME280;37812;47.556;18.718;2022-09-17T07:28:46;98889.38;;;13.43;92.38
51243;BME280;37812;47.556;18.718;2022-09-17T07:31:12;98899.81;;;13.46;89.53
51243;BME280;37812;47.556;18.718;2022-09-17T07:33:39;98903.03;;;13.27;91.88
51243;BME280;37812;47.556;18.718;2022-09-17T07:36:07;98917.06;;;13.41;94.14
51243;BME280;37812;47.556;18.718;2022-09-17T07:38:33;98917.09;;;13.44;93.30
51243;BME280;37812;47.556;18.718;2022-09-17T07:43:26;98922.41;;;13.53;92.29
51243;BME280;37812;47.556;18.718;2022-09-17T07:45:53;98925.78;;;13.46;95.42
51243;BME280;37812;47.556;18.718;2022-09-17T07:48:20;98926.53;;;13.36;92.53
51243;BME280;37812;47.556;18.718;2022-09-17T07:50:46;98930.09;;;13.44;92.21
51243;BME280;37812;47.556;18.718;2022-09-17T07:53:12;98934.53;;;13.54;92.68
51243;BME280;37812;47.556;18.718;2022-09-17T07:55:38;98929.06;;;13.33;94.71
51243;BME280;37812;47.556;18.718;2022-09-17T07:58:04;98934.16;;;13.24;94.40
51243;BME280;37812;47.556;18.718;2022-09-17T08:00:30;98946.16;;;13.16;92.90
51243;BME280;37812;47.556;18.718;2022-09-17T08:02:57;98951.47;;;13.22;95.32
51243;BME280;37812;47.556;18.718;2022-09-17T08:05:23;98955.03;;;13.30;93.99
51243;BME280;37812;47.556;18.718;2022-09-17T08:07:51;98952.47;;;13.33;93.72
51243;BME280;37812;47.556;18.718;2022-09-17T08:10:17;98963.59;;;13.23;96.27
51243;BME280;37812;47.556;18.718;2022-09-17T08:12:48;98960.84;;;13.14;97.91
51243;BME280;37812;47.556;18.718;2022-09-17T08:15:16;98966.84;;;13.09;95.31
51243;BME280;37812;47.556;18.718;2022-09-17T08:17:43;98978.16;;;13.15;95.91
51243;BME280;37812;47.556;18.718;2022-09-17T08:20:09;98983.41;;;13.18;95.39
51243;BME280;37812;47.556;18.718;2022-09-17T08:22:36;98985.84;;;13.05;92.64
51243;BME280;37812;47.556;18.718;2022-09-17T08:25:03;98990.19;;;13.08;94.15
51243;BME280;37812;47.556;18.718;2022-09-17T08:27:29;98989.41;;;13.14;91.80
51243;BME280;37812;47.556;18.718;2022-09-17T08:29:56;98994.59;;;13.14;93.11
51243;BME280;37812;47.556;18.718;2022-09-17T08:32:22;98990.47;;;13.25;93.12
51243;BME280;37812;47.556;18.718;2022-09-17T08:34:48;98982.16;;;13.50;92.27
51243;BME280;37812;47.556;18.718;2022-09-17T08:37:14;98986.53;;;13.56;91.94
51243;BME280;37812;47.556;18.718;2022-09-17T08:39:41;98976.31;;;13.67;93.61
51243;BME280;37812;47.556;18.718;2022-09-17T08:42:37;98973.78;;;13.73;95.20
51243;BME280;37812;47.556;18.718;2022-09-17T08:45:09;98967.66;;;13.71;91.56
51243;BME280;37812;47.556;18.718;2022-09-17T08:47:41;98958.91;;;13.62;93.67
51243;BME280;37812;47.556;18.718;2022-09-17T09:00:54;98947.44;;;13.47;91.03
51243;BME280;37812;47.556;18.718;2022-09-17T09:06:14;98952.69;;;13.50;92.14
51243;BME280;37812;47.556;18.718;2022-09-17T09:08:43;98969.09;;;13.44;92.62
51243;BME280;37812;47.556;18.718;2022-09-17T09:11:31;98961.94;;;13.28;92.39
51243;BME280;37812;47.556;18.718;2022-09-17T09:14:12;98960.19;;;13.27;93.54
51243;BME280;37812;47.556;18.718;2022-09-17T09:16:42;98970.50;;;13.21;93.74
51243;BME280;37812;47.556;18.718;2022-09-17T09:19:23;98964.47;;;13.25;94.69
51243;BME280;37812;47.556;18.718;2022-09-17T09:22:04;98965.34;;;13.24;90.85
51243;BME280;37812;47.556;18.718;2022-09-17T09:24:44;98978.50;;;13.36;91.52
51243;BME280;37812;47.556;18.718;2022-09-17T09:27:27;98972.56;;;13.46;90.30
51243;BME280;37812;47.556;18.718;2022-09-17T09:32:56;98969.34;;;13.66;86.94
51243;BME280;37812;47.556;18.718;2022-09-17T09:35:28;98969.41;;;13.72;87.28
51243;BME280;37812;47.556;18.718;2022-09-17T09:40:59;98981.88;;;14.00;87.17
51243;BME280;37812;47.556;18.718;2022-09-17T09:43:42;98985.19;;;13.87;83.94
51243;BME280;37812;47.556;18.718;2022-09-17T09:46:30;98984.47;;;14.00;82.30
51243;BME280;37812;47.556;18.718;2022-09-17T09:49:03;98982.03;;;14.15;83.15
51243;BME280;37812;47.556;18.718;2022-09-17T09:56:54;98974.16;;;15.05;78.58
51243;BME280;37812;47.556;18.718;2022-09-17T09:59:20;98965.56;;;15.18;79.21
51243;BME280;37812;47.556;18.718;2022-09-17T10:01:46;98966.56;;;15.43;77.64
51243;BME280;37812;47.556;18.718;2022-09-17T10:04:18;98963.94;;;15.42;77.25
51243;BME280;37812;47.556;18.718;2022-09-17T10:06:46;98965.72;;;15.52;74.23
51243;BME280;37812;47.556;18.718;2022-09-17T10:09:13;98971.94;;;15.78;75.42
51243;BME280;37812;47.556;18.718;2022-09-17T10:11:41;98966.69;;;15.66;74.53
51243;BME280;37812;47.556;18.718;2022-09-17T10:16:42;98974.41;;;15.54;73.29
51243;BME280;37812;47.556;18.718;2022-09-17T10:21:37;98946.50;;;15.28;74.57
51243;BME280;37812;47.556;18.718;2022-09-17T10:24:31;98935.22;;;15.36;72.42
51243;BME280;37812;47.556;18.718;2022-09-17T10:27:05;98929.97;;;15.26;74.37
51243;BME280;37812;47.556;18.718;2022-09-17T10:29:32;98915.25;;;15.41;72.75
51243;BME280;37812;47.556;18.718;2022-09-17T10:31:58;98918.47;;;14.91;72.48
51243;BME280;37812;47.556;18.718;2022-09-17T10:34:27;98925.28;;;14.67;74.92
51243;BME280;37812;47.556;18.718;2022-09-17T10:36:54;98915.88;;;14.91;73.39
51243;BME280;37812;47.556;18.718;2022-09-17T10:39:40;98927.22;;;14.99;74.89
51243;BME280;37812;47.556;18.718;2022-09-17T10:42:16;98944.63;;;15.06;75.19
51243;BME280;37812;47.556;18.718;2022-09-17T10:44:56;98951.25;;;14.64;73.70
51243;BME280;37812;47.556;18.718;2022-09-17T10:47:35;98930.19;;;14.37;76.68
51243;BME280;37812;47.556;18.718;2022-09-17T10:50:15;98907.59;;;14.30;74.68
51243;BME280;37812;47.556;18.718;2022-09-17T10:52:54;98887.63;;;14.30;74.76
51243;BME280;37812;47.556;18.718;2022-09-17T10:55:29;98873.16;;;14.64;75.19
51243;BME280;37812;47.556;18.718;2022-09-17T11:14:49;98906.31;;;14.90;71.74
51243;BME280;37812;47.556;18.718;2022-09-17T11:25:56;98901.28;;;15.20;69.62
51243;BME280;37812;47.556;18.718;2022-09-17T11:39:47;98888.22;;;15.13;66.74
51243;BME280;37812;47.556;18.718;2022-09-17T11:42:25;98897.78;;;15.12;65.93
51243;BME280;37812;47.556;18.718;2022-09-17T11:44:59;98894.28;;;15.13;68.23
51243;BME280;37812;47.556;18.718;2022-09-17T11:47:44;98882.13;;;15.12;66.74
51243;BME280;37812;47.556;18.718;2022-09-17T11:50:21;98882.09;;;15.09;69.99
51243;BME280;37812;47.556;18.718;2022-09-17T11:55:29;98845.84;;;15.70;66.73
51243;BME280;37812;47.556;18.718;2022-09-17T11:57:59;98845.88;;;15.95;65.68
51243;BME280;37812;47.556;18.718;2022-09-17T12:00:29;98831.94;;;15.71;66.38
51243;BME280;37812;47.556;18.718;2022-09-17T12:05:49;98828.34;;;15.33;70.17
51243;BME280;37812;47.556;18.718;2022-09-17T12:11:16;98817.97;;;15.42;66.37
51243;BME280;37812;47.556;18.718;2022-09-17T12:13:53;98805.75;;;15.41;65.70
51243;BME280;37812;47.556;18.718;2022-09-17T12:16:26;98807.50;;;15.36;65.14
51243;BME280;37812;47.556;18.718;2022-09-17T12:49:36;98751.34;;;14.14;73.86
51243;BME280;37812;47.556;18.718;2022-09-17T12:54:53;98777.25;;;13.99;72.73
51243;BME280;37812;47.556;18.718;2022-09-17T13:00:05;98805.75;;;13.85;71.63
51243;BME280;37812;47.556;18.718;2022-09-17T13:02:45;98815.19;;;13.73;75.28
51243;BME280;37812;47.556;18.718;2022-09-17T13:12:01;98820.34;;;13.70;71.69
51243;BME280;37812;47.556;18.718;2022-09-17T13:22:18;98799.44;;;13.57;75.45
51243;BME280;37812;47.556;18.718;2022-09-17T13:24:46;98801.31;;;13.74;75.37
51243;BME280;37812;47.556;18.718;2022-09-17T13:27:22;98799.63;;;13.79;73.04
51243;BME280;37812;47.556;18.718;2022-09-17T13:37:36;98761.41;;;13.69;75.07
51243;BME280;37812;47.556;18.718;2022-09-17T13:40:04;98759.75;;;13.80;75.50
51243;BME280;37812;47.556;18.718;2022-09-17T13:42:43;98753.63;;;13.72;76.12
51243;BME280;37812;47.556;18.718;2022-09-17T13:45:13;98744.06;;;13.66;76.00
51243;BME280;37812;47.556;18.718;2022-09-17T13:47:58;98752.69;;;13.63;73.91
51243;BME280;37812;47.556;18.718;2022-09-17T13:58:32;98766.31;;;13.38;75.42
51243;BME280;37812;47.556;18.718;2022-09-17T14:01:01;98757.41;;;13.18;75.05
51243;BME280;37812;47.556;18.718;2022-09-17T14:05:54;98759.03;;;13.06;74.13
51243;BME280;37812;47.556;18.718;2022-09-17T14:09:07;98753.84;;;13.09;74.81
51243;BME280;37812;47.556;18.718;2022-09-17T14:21:45;98758.75;;;12.82;77.73
51243;BME280;37812;47.556;18.718;2022-09-17T14:24:23;98774.41;;;12.88;74.67
51243;BME280;37812;47.556;18.718;2022-09-17T14:27:12;98768.38;;;12.89;73.59
51243;BME280;37812;47.556;18.718;2022-09-17T14:32:56;98790.69;;;12.76;74.55
51243;BME280;37812;47.556;18.718;2022-09-17T14:35:43;98797.63;;;12.76;74.66
51243;BME280;37812;47.556;18.718;2022-09-17T14:38:22;98795.03;;;12.76;76.25
51243;BME280;37812;47.556;18.718;2022-09-17T14:40:58;98803.53;;;12.66;77.23
51243;BME280;37812;47.556;18.718;2022-09-17T14:46:41;98806.81;;;12.52;79.21
51243;BME280;37812;47.556;18.718;2022-09-17T14:49:26;98795.63;;;12.57;79.14
51243;BME280;37812;47.556;18.718;2022-09-17T14:51:54;98798.25;;;12.58;79.18
51243;BME280;37812;47.556;18.718;2022-09-17T14:54:39;98792.91;;;12.47;79.20
51243;BME280;37812;47.556;18.718;2022-09-17T15:02:00;98784.22;;;12.45;80.64
51243;BME280;37812;47.556;18.718;2022-09-17T15:04:27;98783.38;;;12.46;82.20
51243;BME280;37812;47.556;18.718;2022-09-17T15:07:08;98778.94;;;12.39;83.03
51243;BME280;37812;47.556;18.718;2022-09-17T15:09:36;98779.91;;;12.47;80.89
51243;BME280;37812;47.556;18.718;2022-09-17T15:12:03;98773.72;;;12.36;80.77
51243;BME280;37812;47.556;18.718;2022-09-17T15:14:33;98782.44;;;12.41;83.08
51243;BME280;37812;47.556;18.718;2022-09-17T15:17:02;98777.22;;;12.41;79.04
51243;BME280;37812;47.556;18.718;2022-09-17T15:21:59;98777.12;;;12.32;82.46
51243;BME280;37812;47.556;18.718;2022-09-17T15:24:39;98775.56;;;12.43;80.61
51243;BME280;37812;47.556;18.718;2022-09-17T15:27:15;98772.88;;;12.39;79.13
51243;BME280;37812;47.556;18.718;2022-09-17T15:29:49;98762.41;;;12.33;79.00
51243;BME280;37812;47.556;18.718;2022-09-17T15:32:16;98754.72;;;12.37;79.19
51243;BME280;37812;47.556;18.718;2022-09-17T15:34:42;98747.69;;;12.30;80.94
51243;BME280;37812;47.556;18.718;2022-09-17T15:37:18;98737.22;;;12.24;82.29
51243;BME280;37812;47.556;18.718;2022-09-17T15:39:50;98730.31;;;12.23;82.90
51243;BME280;37812;47.556;18.718;2022-09-17T15:42:22;98730.31;;;12.23;82.45
51243;BME280;37812;47.556;18.718;2022-09-17T15:44:50;98730.44;;;12.32;81.35
51243;BME280;37812;47.556;18.718;2022-09-17T15:50:17;98704.38;;;12.23;81.35
51243;BME280;37812;47.556;18.718;2022-09-17T15:52:44;98699.09;;;12.17;82.86
51243;BME280;37812;47.556;18.718;2022-09-17T15:55:31;98699.09;;;12.17;81.70
51243;BME280;37812;47.556;18.718;2022-09-17T15:57:57;98705.91;;;12.09;82.88
51243;BME280;37812;47.556;18.718;2022-09-17T16:00:24;98711.09;;;12.09;81.83
51243;BME280;37812;47.556;18.718;2022-09-17T16:02:50;98714.50;;;12.06;81.89
51243;BME280;37812;47.556;18.718;2022-09-17T16:07:44;98722.19;;;11.99;81.37
51243;BME280;37812;47.556;18.718;2022-09-17T16:10:11;98719.63;;;12.02;81.93
51243;BME280;37812;47.556;18.718;2022-09-17T16:12:37;98710.09;;;11.99;82.18
51243;BME280;37812;47.556;18.718;2022-09-17T16:15:04;98711.84;;;12.03;81.38
51243;BME280;37812;47.556;18.718;2022-09-17T16:17:45;98704.06;;;12.02;82.94
51243;BME280;37812;47.556;18.718;2022-09-17T16:20:15;98703.19;;;12.01;82.29
51243;BME280;37812;47.556;18.718;2022-09-17T16:22:42;98701.44;;;11.97;84.25
51243;BME280;37812;47.556;18.718;2022-09-17T16:25:10;98705.69;;;11.93;84.12
51243;BME280;37812;47.556;18.718;2022-09-17T16:27:43;98709.97;;;11.91;85.41
51243;BME280;37812;47.556;18.718;2022-09-17T16:30:14;98712.44;;;11.82;84.08
51243;BME280;37812;47.556;18.718;2022-09-17T16:32:41;98700.47;;;11.90;83.52
51243;BME280;37812;47.556;18.718;2022-09-17T16:35:11;98676.28;;;11.91;85.10
51243;BME280;37812;47.556;18.718;2022-09-17T16:37:37;98667.63;;;11.89;83.09
51243;BME280;37812;47.556;18.718;2022-09-17T16:40:03;98671.03;;;11.88;83.26